Time;durP1;ratioP1;P1;durP2;ratioP2;P2;SDS_P1;SDS_P2;PMS_P1;PMS_P2;Temp;Humidity;BMP_temperature;BMP_pressure;BME280_temperature;BME280_humidity;BME280_pressure;Samples;Min_cycle;Max_cycle;Signal;HPM_P1;HPM_P2
2023/07/01 00:02:22;;;;;;;20.80;19.97;;;24.10;68.60;;;;;;5015926;28;20489;-65
2023/07/01 00:04:48;;;;;;;20.07;19.33;;;24.00;68.30;;;;;;5029886;28;20568;-65
2023/07/01 00:07:15;;;;;;;19.10;18.40;;;24.00;68.30;;;;;;5031770;28;20524;-64
2023/07/01 00:09:42;;;;;;;19.23;18.53;;;24.00;68.40;;;;;;5032115;28;20529;-64
2023/07/01 00:12:09;;;;;;;19.73;19.07;;;24.00;68.50;;;;;;5027157;28;20536;-64
2023/07/01 00:14:37;;;;;;;19.57;18.87;;;24.00;68.50;;;;;;5019748;28;21040;-64
2023/07/01 00:17:04;;;;;;;18.40;17.80;;;24.00;68.40;;;;;;5011991;28;20580;-64
2023/07/01 00:19:31;;;;;;;19.40;18.70;;;24.00;68.40;;;;;;5012206;28;20822;-64
2023/07/01 00:21:58;;;;;;;19.03;18.43;;;23.90;68.30;;;;;;5020099;28;20452;-64
2023/07/01 00:24:25;;;;;;;20.70;19.90;;;23.90;68.40;;;;;;5032099;28;20552;-65
2023/07/01 00:26:52;;;;;;;19.13;18.43;;;23.90;68.40;;;;;;5031583;28;20532;-64
2023/07/01 00:29:19;;;;;;;19.80;19.10;;;24.00;68.50;;;;;;5033915;28;20528;-64
2023/07/01 00:31:48;;;;;;;19.67;18.97;;;23.90;68.40;;;;;;5028929;28;20485;-64
2023/07/01 00:34:14;;;;;;;18.90;18.10;;;23.90;68.60;;;;;;5011333;28;21045;-64
2023/07/01 00:36:41;;;;;;;18.40;17.80;;;23.90;68.60;;;;;;5011641;28;20561;-64
2023/07/01 00:39:08;;;;;;;18.63;17.83;;;23.90;68.60;;;;;;5011817;28;20541;-64
2023/07/01 00:41:35;;;;;;;19.13;18.43;;;23.90;68.70;;;;;;5014001;28;20484;-64
2023/07/01 00:44:03;;;;;;;21.33;20.53;;;23.90;68.70;;;;;;5031429;28;20492;-64
2023/07/01 00:46:32;;;;;;;19.20;18.37;;;23.90;68.80;;;;;;5031439;28;20491;-64
2023/07/01 00:49:01;;;;;;;19.60;18.80;;;23.90;68.80;;;;;;5031400;28;20449;-64
2023/07/01 00:51:28;;;;;;;18.97;18.27;;;23.90;68.90;;;;;;5030185;28;20944;-64
2023/07/01 00:53:55;;;;;;;19.63;18.93;;;23.90;69.00;;;;;;5011536;28;20566;-64
2023/07/01 00:56:22;;;;;;;19.53;18.83;;;23.80;69.80;;;;;;5011503;28;20934;-64
2023/07/01 00:58:49;;;;;;;19.17;18.47;;;23.80;69.10;;;;;;5011537;28;20853;-65
2023/07/01 01:01:21;;;;;;;19.53;18.83;;;23.90;69.30;;;;;;5011741;28;20477;-65
2023/07/01 01:03:53;;;;;;;20.57;19.77;;;23.80;69.10;;;;;;5021931;28;20485;-64
2023/07/01 01:06:33;;;;;;;19.33;18.63;;;23.90;69.30;;;;;;5011858;28;20452;-64
2023/07/01 01:09:03;;;;;;;19.10;18.40;;;23.80;69.20;;;;;;5011488;28;20485;-64
2023/07/01 01:11:33;;;;;;;19.80;18.90;;;23.80;69.20;;;;;;5011996;28;20545;-64
2023/07/01 01:14:03;;;;;;;19.40;18.70;;;23.80;69.10;;;;;;5031127;28;20497;-64
2023/07/01 01:16:30;;;;;;;18.87;18.17;;;23.80;69.20;;;;;;5030880;28;20563;-64
2023/07/01 01:18:59;;;;;;;19.43;18.73;;;23.80;69.20;;;;;;5030958;28;21085;-64
2023/07/01 01:21:29;;;;;;;19.63;18.73;;;23.80;69.30;;;;;;5017334;28;20481;-64
2023/07/01 01:24:01;;;;;;;19.60;18.80;;;23.80;69.30;;;;;;5011247;28;20462;-64
2023/07/01 01:26:38;;;;;;;19.13;18.43;;;23.80;69.40;;;;;;5011183;28;20448;-64
2023/07/01 01:29:07;;;;;;;18.67;17.97;;;23.80;69.40;;;;;;5011249;28;20473;-64
2023/07/01 01:31:34;;;;;;;19.70;18.90;;;23.80;69.30;;;;;;5025405;28;20445;-64
2023/07/01 01:34:01;;;;;;;18.40;17.73;;;23.70;69.20;;;;;;5030932;28;20541;-64
2023/07/01 01:36:35;;;;;;;19.70;19.00;;;23.80;69.40;;;;;;5030781;28;20531;-64
2023/07/01 01:39:05;;;;;;;19.03;18.33;;;23.70;69.40;;;;;;5030887;28;21011;-64
2023/07/01 01:41:40;;;;;;;18.87;18.17;;;23.80;69.60;;;;;;5016947;28;20450;-64
2023/07/01 01:44:11;;;;;;;19.60;18.80;;;23.70;69.60;;;;;;5011187;28;20556;-64
2023/07/01 01:46:40;;;;;;;18.83;18.00;;;23.70;69.60;;;;;;5014400;28;20525;-64
2023/07/01 01:49:10;;;;;;;18.83;18.13;;;23.70;69.50;;;;;;5030553;28;21023;-64
2023/07/01 01:51:39;;;;;;;18.83;18.17;;;23.70;69.50;;;;;;5026443;28;20477;-64
2023/07/01 01:54:08;;;;;;;18.60;18.00;;;23.70;69.40;;;;;;5014913;28;20470;-64
2023/07/01 01:56:36;;;;;;;18.90;18.20;;;23.70;69.30;;;;;;5014437;28;20888;-64
2023/07/01 01:59:03;;;;;;;18.63;17.90;;;23.70;69.20;;;;;;5022018;28;20531;-64
2023/07/01 02:01:31;;;;;;;18.97;18.27;;;23.70;69.20;;;;;;5034394;28;20495;-64
2023/07/01 02:03:58;;;;;;;18.93;18.23;;;23.70;69.20;;;;;;5034181;28;20547;-64
2023/07/01 02:06:25;;;;;;;19.03;18.23;;;23.70;69.30;;;;;;5034227;28;20495;-64
2023/07/01 02:08:52;;;;;;;19.90;19.20;;;23.70;69.40;;;;;;5033706;28;20527;-64
2023/07/01 02:11:19;;;;;;;20.67;19.77;;;23.70;69.20;;;;;;5034173;28;20528;-63
2023/07/01 02:13:46;;;;;;;20.13;19.07;;;23.70;69.20;;;;;;5034221;28;20948;-64
2023/07/01 02:16:13;;;;;;;20.10;19.40;;;23.70;69.20;;;;;;5034049;28;20492;-64
2023/07/01 02:18:41;;;;;;;19.83;19.00;;;23.70;69.10;;;;;;5028078;28;21072;-64
2023/07/01 02:21:08;;;;;;;20.07;19.37;;;23.70;69.10;;;;;;5020299;28;20541;-64
2023/07/01 02:23:34;;;;;;;19.03;18.33;;;23.70;69.00;;;;;;5014172;28;20538;-64
2023/07/01 02:26:01;;;;;;;20.77;20.07;;;23.70;68.90;;;;;;5013993;28;20477;-64
2023/07/01 02:28:28;;;;;;;19.63;18.83;;;23.70;68.80;;;;;;5014015;28;20537;-64
2023/07/01 02:30:55;;;;;;;19.10;18.50;;;23.60;68.60;;;;;;5014191;28;20477;-64
2023/07/01 02:33:22;;;;;;;19.03;18.33;;;23.70;68.70;;;;;;5014360;28;20453;-64
2023/07/01 02:35:50;;;;;;;19.73;19.07;;;23.60;68.50;;;;;;5013881;28;20556;-64
2023/07/01 02:38:17;;;;;;;18.60;18.00;;;23.60;68.60;;;;;;5022221;28;20916;-64
2023/07/01 02:40:44;;;;;;;18.77;18.17;;;23.70;68.50;;;;;;5023821;28;20880;-64
2023/07/01 02:43:11;;;;;;;18.73;18.03;;;23.60;68.30;;;;;;5015786;28;20465;-64
2023/07/01 02:45:38;;;;;;;20.47;19.57;;;23.70;68.30;;;;;;5016535;28;20877;-62
2023/07/01 02:48:05;;;;;;;19.60;18.93;;;23.60;68.10;;;;;;5022699;28;20987;-65
2023/07/01 02:50:32;;;;;;;19.57;18.87;;;23.60;68.10;;;;;;5036328;28;20832;-63
2023/07/01 02:53:00;;;;;;;18.73;18.13;;;23.60;68.00;;;;;;5035516;28;20449;-63
2023/07/01 02:55:29;;;;;;;19.47;18.87;;;23.60;67.90;;;;;;5034876;28;20496;-65
2023/07/01 02:57:56;;;;;;;19.77;19.03;;;23.60;67.80;;;;;;5029844;28;20482;-64
2023/07/01 03:00:23;;;;;;;18.80;18.10;;;23.60;67.70;;;;;;5015622;28;20500;-64
2023/07/01 03:02:50;;;;;;;19.03;18.10;;;23.60;67.60;;;;;;5015601;28;20488;-65
2023/07/01 03:05:20;;;;;;;19.90;19.13;;;23.60;67.60;;;;;;5015056;28;20474;-65
2023/07/01 03:07:47;;;;;;;19.30;18.43;;;23.60;67.60;;;;;;5018606;28;20444;-64
2023/07/01 03:10:16;;;;;;;19.27;18.43;;;23.60;67.60;;;;;;5016338;28;20725;-65
2023/07/01 03:12:43;;;;;;;18.87;18.17;;;23.60;67.60;;;;;;5015450;28;20494;-62
2023/07/01 03:15:11;;;;;;;20.63;19.77;;;23.60;67.60;;;;;;5015676;28;20502;-63
2023/07/01 03:17:38;;;;;;;19.10;18.40;;;23.60;67.40;;;;;;5019250;28;20543;-65
2023/07/01 03:20:06;;;;;;;19.60;18.83;;;23.60;67.40;;;;;;5037807;28;20480;-64
2023/07/01 03:22:33;;;;;;;19.20;18.30;;;23.50;67.30;;;;;;5038894;28;20449;-65
2023/07/01 03:24:59;;;;;;;19.40;18.70;;;23.60;67.40;;;;;;5038430;28;20496;-65
2023/07/01 03:27:28;;;;;;;19.57;18.77;;;23.60;67.30;;;;;;5037250;28;20477;-65
2023/07/01 03:29:55;;;;;;;19.80;19.10;;;23.60;67.30;;;;;;5018726;28;20474;-65
2023/07/01 03:32:22;;;;;;;19.73;18.93;;;23.60;67.30;;;;;;5018693;28;20454;-63
2023/07/01 03:34:49;;;;;;;19.20;18.60;;;23.50;67.20;;;;;;5017963;28;20836;-65
2023/07/01 03:37:16;;;;;;;19.20;18.53;;;23.50;67.20;;;;;;5013850;28;21072;-65
2023/07/01 03:39:42;;;;;;;19.63;18.93;;;23.50;67.10;;;;;;5032192;28;20542;-65
2023/07/01 03:42:09;;;;;;;20.03;19.23;;;23.50;67.20;;;;;;5032703;28;20480;-64
2023/07/01 03:44:38;;;;;;;19.70;19.00;;;23.50;67.40;;;;;;5032427;28;20501;-64
2023/07/01 03:47:05;;;;;;;19.53;18.83;;;23.50;67.40;;;;;;5032250;28;20484;-67
2023/07/01 03:49:32;;;;;;;20.37;19.67;;;23.50;67.40;;;;;;5015144;28;20525;-68
2023/07/01 03:51:58;;;;;;;19.90;19.20;;;23.50;67.30;;;;;;5012680;28;20477;-67
2023/07/01 03:54:25;;;;;;;20.73;19.93;;;23.50;68.10;;;;;;5012442;28;20497;-67
2023/07/01 03:56:52;;;;;;;19.70;19.00;;;23.50;67.30;;;;;;5021106;28;20524;-64
2023/07/01 03:59:19;;;;;;;20.00;19.20;;;23.60;67.40;;;;;;5032083;28;20546;-63
2023/07/01 04:01:48;;;;;;;19.43;18.73;;;23.60;67.40;;;;;;5032217;28;20543;-65
2023/07/01 04:04:15;;;;;;;20.60;19.90;;;23.60;67.30;;;;;;5031916;28;20999;-65
2023/07/01 04:06:42;;;;;;;20.97;20.27;;;23.60;67.20;;;;;;5024582;28;20481;-65
2023/07/01 04:09:12;;;;;;;21.63;20.83;;;23.60;67.20;;;;;;5011977;28;20812;-65
2023/07/01 04:11:39;;;;;;;20.93;20.20;;;23.60;67.10;;;;;;5012977;28;20446;-64
2023/07/01 04:14:06;;;;;;;21.13;20.43;;;23.60;67.10;;;;;;5012207;28;20553;-64
2023/07/01 04:16:33;;;;;;;21.10;20.30;;;23.60;66.90;;;;;;5017401;28;20528;-64
2023/07/01 04:19:01;;;;;;;24.00;23.10;;;23.60;66.80;;;;;;5031688;28;20489;-64
2023/07/01 04:21:28;;;;;;;21.20;20.50;;;23.60;66.80;;;;;;5033073;28;20484;-66
2023/07/01 04:23:55;;;;;;;21.83;21.03;;;23.60;66.80;;;;;;5031657;28;20518;-65
2023/07/01 04:26:22;;;;;;;20.17;19.47;;;23.70;67.00;;;;;;5029976;28;20549;-65
2023/07/01 04:28:49;;;;;;;19.10;18.50;;;23.80;66.50;;;;;;5031799;28;20533;-65
2023/07/01 04:31:16;;;;;;;19.33;18.63;;;23.80;66.00;;;;;;5031708;28;21027;-65
2023/07/01 04:33:42;;;;;;;21.20;20.50;;;23.80;65.90;;;;;;5031717;28;20524;-64
2023/07/01 04:36:11;;;;;;;20.60;19.90;;;23.80;65.90;;;;;;5026663;28;20467;-65
2023/07/01 04:38:37;;;;;;;20.63;19.93;;;23.90;65.90;;;;;;5031590;28;20744;-66
2023/07/01 04:41:05;;;;;;;20.30;19.60;;;23.90;65.70;;;;;;5031486;28;20481;-65
2023/07/01 04:43:32;;;;;;;20.60;19.90;;;23.90;65.50;;;;;;5031425;28;20452;-64
2023/07/01 04:46:00;;;;;;;21.50;20.70;;;24.00;65.40;;;;;;5026536;28;20445;-64
2023/07/01 04:48:27;;;;;;;20.67;19.97;;;24.00;65.20;;;;;;5031387;28;20804;-67
2023/07/01 04:50:54;;;;;;;21.27;20.47;;;24.10;65.20;;;;;;5031341;28;20527;-66
2023/07/01 04:53:22;;;;;;;21.50;20.80;;;24.10;64.90;;;;;;5031360;28;20477;-66
2023/07/01 04:55:50;;;;;;;21.13;20.37;;;24.10;64.80;;;;;;5030750;28;20472;-66
2023/07/01 04:58:17;;;;;;;21.03;20.33;;;24.10;64.70;;;;;;5031436;28;20487;-64
2023/07/01 05:00:44;;;;;;;20.97;20.10;;;24.10;64.40;;;;;;5032235;28;20476;-67
2023/07/01 05:03:14;;;;;;;20.43;19.70;;;24.20;64.90;;;;;;5020490;28;20477;-66
2023/07/01 05:05:41;;;;;;;21.40;20.50;;;24.30;64.70;;;;;;5011539;28;20866;-65
2023/07/01 05:08:08;;;;;;;21.53;20.73;;;24.30;64.20;;;;;;5011276;28;20520;-64
2023/07/01 05:10:36;;;;;;;23.47;22.67;;;24.30;64.00;;;;;;5011556;28;20809;-64
2023/07/01 05:13:03;;;;;;;20.57;19.87;;;24.40;64.10;;;;;;5015662;28;20482;-65
2023/07/01 05:15:30;;;;;;;21.93;21.00;;;24.50;63.80;;;;;;5026097;28;20552;-65
2023/07/01 05:17:57;;;;;;;21.10;20.40;;;24.50;63.50;;;;;;5031050;28;20485;-65
2023/07/01 05:20:24;;;;;;;21.70;20.90;;;24.60;63.00;;;;;;5035159;28;20528;-67
2023/07/01 05:22:51;;;;;;;20.30;19.70;;;24.60;62.80;;;;;;5034644;28;20480;-65
2023/07/01 05:25:18;;;;;;;21.70;20.80;;;24.60;62.60;;;;;;5035408;28;20507;-66
2023/07/01 05:27:46;;;;;;;21.60;20.80;;;24.60;62.60;;;;;;5034949;28;20483;-65
2023/07/01 05:30:13;;;;;;;21.30;20.60;;;24.70;62.80;;;;;;5035208;28;21009;-65
2023/07/01 05:32:40;;;;;;;21.53;20.73;;;24.60;62.60;;;;;;5027807;28;20469;-63
2023/07/01 05:35:07;;;;;;;21.63;20.93;;;24.60;62.60;;;;;;5015062;28;20477;-65
2023/07/01 05:37:34;;;;;;;22.17;21.00;;;24.60;62.80;;;;;;5015063;28;20485;-66
2023/07/01 05:40:01;;;;;;;20.20;19.50;;;24.50;62.80;;;;;;5015191;28;20524;-65
2023/07/01 05:42:28;;;;;;;20.60;20.00;;;24.70;63.60;;;;;;5033975;28;20837;-64
2023/07/01 05:44:56;;;;;;;21.90;21.10;;;24.70;62.70;;;;;;5034845;28;20472;-62
2023/07/01 05:47:23;;;;;;;20.87;20.07;;;24.70;62.60;;;;;;5034453;28;20476;-61
2023/07/01 05:49:50;;;;;;;21.10;20.30;;;24.60;62.60;;;;;;5034593;28;20528;-62
2023/07/01 05:52:17;;;;;;;21.13;20.43;;;24.70;62.70;;;;;;5034056;28;20527;-62
2023/07/01 05:54:44;;;;;;;21.70;20.90;;;24.70;62.60;;;;;;5034517;28;20540;-63
2023/07/01 05:57:11;;;;;;;22.53;21.63;;;24.70;62.50;;;;;;5034451;28;20532;-64
2023/07/01 05:59:37;;;;;;;22.63;21.83;;;24.70;63.20;;;;;;5025280;28;20573;-64
2023/07/01 06:02:07;;;;;;;23.10;22.30;;;24.70;62.70;;;;;;5014776;28;20546;-64
2023/07/01 06:04:34;;;;;;;23.03;22.10;;;24.80;62.40;;;;;;5014435;28;21049;-64
2023/07/01 06:07:01;;;;;;;22.80;21.73;;;24.80;62.40;;;;;;5014471;28;20462;-61
2023/07/01 06:09:27;;;;;;;24.50;23.40;;;24.80;62.60;;;;;;5016949;28;20544;-61
2023/07/01 06:11:54;;;;;;;24.00;22.80;;;24.80;62.40;;;;;;5022651;28;20533;-63
2023/07/01 06:14:21;;;;;;;22.70;21.80;;;24.80;62.90;;;;;;5014580;28;20489;-62
2023/07/01 06:16:48;;;;;;;23.00;22.10;;;24.90;63.40;;;;;;5014546;28;20533;-62
2023/07/01 06:19:16;;;;;;;20.23;19.52;;;24.80;64.10;;;;;;5018653;28;20563;-64
2023/07/01 06:21:45;;;;;;;23.43;22.63;;;24.80;64.60;;;;;;5034137;28;20297;-62
2023/07/01 06:24:12;;;;;;;23.57;22.70;;;24.90;64.80;;;;;;5034043;28;20842;-63
2023/07/01 06:26:39;;;;;;;22.40;21.60;;;24.90;65.40;;;;;;5033855;28;20495;-62
2023/07/01 06:29:07;;;;;;;22.70;22.00;;;24.90;65.60;;;;;;5032270;28;20446;-63
2023/07/01 06:31:33;;;;;;;20.10;19.30;;;24.90;66.40;;;;;;5016396;28;20447;-63
2023/07/01 06:34:00;;;;;;;22.20;21.50;;;25.00;67.50;;;;;;5014160;28;20512;-63
2023/07/01 06:36:28;;;;;;;22.10;21.30;;;25.00;67.60;;;;;;5013978;28;20528;-62
2023/07/01 06:38:55;;;;;;;21.80;21.10;;;25.10;68.40;;;;;;5015016;28;20577;-64
2023/07/01 06:41:22;;;;;;;23.87;23.07;;;25.00;69.20;;;;;;5030999;28;20531;-63
2023/07/01 06:43:49;;;;;;;21.93;21.23;;;25.00;70.30;;;;;;5033656;28;20883;-63
2023/07/01 06:46:16;;;;;;;23.17;22.27;;;25.00;71.20;;;;;;5033532;28;20481;-63
2023/07/01 06:48:43;;;;;;;23.10;22.30;;;25.00;71.90;;;;;;5033660;28;20442;-64
2023/07/01 06:51:10;;;;;;;22.43;21.53;;;24.90;73.10;;;;;;5017347;28;20486;-63
2023/07/01 06:53:40;;;;;;;22.33;21.40;;;24.90;73.30;;;;;;5013654;28;20481;-63
2023/07/01 06:56:07;;;;;;;21.40;20.70;;;24.90;74.10;;;;;;5013831;28;20496;-63
2023/07/01 06:58:34;;;;;;;22.77;21.93;;;24.90;74.50;;;;;;5013455;28;20485;-68
2023/07/01 07:01:01;;;;;;;22.50;21.70;;;24.90;75.10;;;;;;5031485;28;20445;-58
2023/07/01 07:03:28;;;;;;;21.33;20.53;;;24.90;75.50;;;;;;5021996;28;20449;-58
2023/07/01 07:05:55;;;;;;;22.43;21.63;;;24.90;75.90;;;;;;5050046;23;20538;-65
2023/07/01 07:08:22;;;;;;;23.07;22.17;;;24.90;76.20;;;;;;5047818;28;20442;-62
2023/07/01 07:10:50;;;;;;;23.20;22.40;;;24.90;76.50;;;;;;5035876;28;20480;-64
2023/07/01 07:13:17;;;;;;;22.03;21.30;;;24.80;77.20;;;;;;5033159;28;20544;-63
2023/07/01 07:15:45;;;;;;;22.10;21.20;;;24.80;77.70;;;;;;5033376;28;20925;-65
2023/07/01 07:18:12;;;;;;;23.30;22.50;;;24.90;78.60;;;;;;5032814;28;21022;-64
2023/07/01 07:20:39;;;;;;;20.40;19.60;;;24.90;79.10;;;;;;5031436;28;20544;-65
2023/07/01 07:23:06;;;;;;;22.37;21.57;;;24.90;79.40;;;;;;5033079;28;20962;-65
2023/07/01 07:25:33;;;;;;;23.43;22.40;;;24.90;79.40;;;;;;5033527;28;20469;-67
2023/07/01 07:28:02;;;;;;;22.03;21.20;;;24.80;80.00;;;;;;5032784;28;20964;-67
2023/07/01 07:30:29;;;;;;;24.27;23.37;;;24.80;80.50;;;;;;5032538;28;20704;-66
2023/07/01 07:32:55;;;;;;;23.83;23.03;;;24.80;80.90;;;;;;5032885;28;20508;-66
2023/07/01 07:35:22;;;;;;;23.63;22.73;;;24.80;81.40;;;;;;5032677;28;20501;-66
2023/07/01 07:37:51;;;;;;;22.87;22.10;;;24.70;81.80;;;;;;5032560;28;20532;-67
2023/07/01 07:40:18;;;;;;;24.17;23.30;;;24.70;82.30;;;;;;5022134;28;20482;-66
2023/07/01 07:42:49;;;;;;;24.60;23.47;;;24.70;81.90;;;;;;5013860;28;20482;-76
2023/07/01 07:45:19;;;;;;;22.80;21.90;;;24.80;82.80;;;;;;5012818;28;20488;-73
2023/07/01 07:47:46;;;;;;;24.23;23.33;;;24.90;81.20;;;;;;5013166;28;20457;-70
2023/07/01 07:50:13;;;;;;;22.50;21.70;;;24.90;80.60;;;;;;5012984;28;20870;-69
2023/07/01 07:52:40;;;;;;;22.00;21.20;;;25.00;80.70;;;;;;5012676;28;20446;-69
2023/07/01 07:55:07;;;;;;;22.90;22.10;;;25.00;80.90;;;;;;5012544;28;20489;-70
2023/07/01 07:57:34;;;;;;;23.40;22.40;;;25.00;80.90;;;;;;5012824;28;20470;-68
2023/07/01 08:00:01;;;;;;;22.20;21.40;;;25.00;81.60;;;;;;5032372;28;20567;-68
2023/07/01 08:02:30;;;;;;;21.67;20.77;;;25.00;81.60;;;;;;5032223;28;20483;-68
2023/07/01 08:04:57;;;;;;;22.17;21.47;;;25.00;82.00;;;;;;5032062;28;21031;-72
2023/07/01 08:07:24;;;;;;;24.17;23.10;;;25.00;82.20;;;;;;5019272;28;20450;-73
2023/07/01 08:09:50;;;;;;;23.83;22.93;;;24.90;82.20;;;;;;5012425;28;20482;-73
2023/07/01 08:12:17;;;;;;;21.87;21.07;;;24.90;82.50;;;;;;5012954;28;20450;-61
2023/07/01 08:14:44;;;;;;;20.37;19.70;;;24.90;83.60;;;;;;5012426;28;20548;-63
2023/07/01 08:17:11;;;;;;;21.00;20.27;;;24.90;84.30;;;;;;5022545;28;20536;-66
2023/07/01 08:19:39;;;;;;;21.50;20.60;;;24.80;84.80;;;;;;5033588;28;20726;-68
2023/07/01 08:22:06;;;;;;;21.63;20.83;;;24.80;85.10;;;;;;5035582;28;20948;-68
2023/07/01 08:24:33;;;;;;;21.47;20.70;;;24.90;85.30;;;;;;5032600;28;20532;-68
2023/07/01 08:27:00;;;;;;;23.10;22.30;;;24.80;85.70;;;;;;5032696;28;20477;-64
2023/07/01 08:29:27;;;;;;;22.27;21.47;;;24.80;85.60;;;;;;5034927;28;20933;-63
2023/07/01 08:31:54;;;;;;;23.07;22.27;;;24.90;86.10;;;;;;5032212;28;20445;-65
2023/07/01 08:34:21;;;;;;;22.83;21.83;;;24.80;86.20;;;;;;5031712;28;20532;-69
2023/07/01 08:36:49;;;;;;;23.90;23.10;;;24.90;86.00;;;;;;5029598;28;20988;-65
2023/07/01 08:39:16;;;;;;;23.43;22.57;;;24.90;87.30;;;;;;5031661;28;20571;-66
2023/07/01 08:41:51;;;;;;;22.30;21.50;;;24.90;85.80;;;;;;5031670;28;20488;-66
2023/07/01 08:44:19;;;;;;;23.03;22.03;;;25.00;85.10;;;;;;5031829;28;20481;-63
2023/07/01 08:46:47;;;;;;;23.10;22.10;;;25.00;84.80;;;;;;5025358;28;20454;-68
2023/07/01 08:49:16;;;;;;;20.87;20.17;;;25.00;84.70;;;;;;5011806;28;20473;-65
2023/07/01 08:51:45;;;;;;;22.00;21.20;;;25.10;84.80;;;;;;5012029;28;20541;-65
2023/07/01 08:54:15;;;;;;;22.17;21.27;;;25.10;84.40;;;;;;5011387;28;20549;-67
2023/07/01 08:56:43;;;;;;;21.27;20.47;;;25.00;84.80;;;;;;5030084;28;20535;-62
2023/07/01 08:59:14;;;;;;;22.90;22.10;;;25.00;85.20;;;;;;5031439;28;20564;-66
2023/07/01 09:01:42;;;;;;;23.37;22.57;;;25.10;84.60;;;;;;5031431;28;20449;-65
2023/07/01 09:04:09;;;;;;;23.10;22.10;;;25.20;84.50;;;;;;5031499;28;21213;-66
2023/07/01 09:06:36;;;;;;;22.70;21.83;;;25.20;84.70;;;;;;5013315;28;20572;-67
2023/07/01 09:09:03;;;;;;;25.67;24.70;;;25.20;86.00;;;;;;5011569;28;20528;-66
2023/07/01 09:11:31;;;;;;;24.80;23.93;;;25.10;85.90;;;;;;5011688;28;20446;-67
2023/07/01 09:13:58;;;;;;;24.07;23.27;;;25.20;86.40;;;;;;5011662;28;20451;-64
2023/07/01 09:16:33;;;;;;;23.30;22.50;;;25.20;86.90;;;;;;5026889;28;20500;-65
2023/07/01 09:19:07;;;;;;;24.90;24.00;;;25.20;87.30;;;;;;5031156;28;20472;-63
2023/07/01 09:21:34;;;;;;;24.70;23.90;;;25.20;87.70;;;;;;5031281;28;20510;-62
2023/07/01 09:24:01;;;;;;;25.17;24.27;;;25.20;88.40;;;;;;5031303;28;20871;-64
2023/07/01 09:26:31;;;;;;;23.10;22.30;;;25.20;88.50;;;;;;5018056;28;20557;-63
2023/07/01 09:28:59;;;;;;;23.30;22.50;;;25.20;89.30;;;;;;5011740;28;20446;-67
2023/07/01 09:31:26;;;;;;;24.00;23.13;;;25.20;89.60;;;;;;5011458;28;20454;-66
2023/07/01 09:34:01;;;;;;;22.60;21.90;;;25.20;89.70;;;;;;5012528;28;20480;-67
2023/07/01 09:36:30;;;;;;;24.80;23.80;;;25.20;90.00;;;;;;5011165;28;20501;-65
2023/07/01 09:38:57;;;;;;;24.80;24.00;;;25.20;90.20;;;;;;5011557;28;20802;-69
2023/07/01 09:41:26;;;;;;;24.27;23.47;;;25.20;90.30;;;;;;5011583;28;21013;-68
2023/07/01 09:43:56;;;;;;;25.60;24.67;;;25.10;90.40;;;;;;5012490;28;20456;-65
2023/07/01 09:46:23;;;;;;;24.93;24.07;;;25.20;90.50;;;;;;5011587;28;20478;-68
2023/07/01 09:48:52;;;;;;;25.50;24.43;;;25.20;90.50;;;;;;5011228;28;20528;-66
2023/07/01 09:51:20;;;;;;;23.73;22.93;;;25.20;90.70;;;;;;5011342;28;20536;-70
2023/07/01 09:53:47;;;;;;;24.10;22.97;;;25.10;90.90;;;;;;5012315;28;20450;-68
2023/07/01 09:56:16;;;;;;;24.03;23.13;;;25.20;91.00;;;;;;5011116;28;20470;-69
2023/07/01 09:58:44;;;;;;;24.93;24.00;;;25.10;91.40;;;;;;5011137;28;20449;-70
2023/07/01 10:01:14;;;;;;;24.33;23.23;;;25.10;91.60;;;;;;5012264;28;20893;-66
2023/07/01 10:03:41;;;;;;;24.80;23.90;;;25.20;91.80;;;;;;5011439;28;20945;-66
2023/07/01 10:06:08;;;;;;;25.43;24.53;;;25.10;92.00;;;;;;5012073;28;20834;-67
2023/07/01 10:08:35;;;;;;;23.27;22.47;;;25.10;92.80;;;;;;5014685;28;20976;-64
2023/07/01 10:11:06;;;;;;;25.40;24.50;;;25.20;92.80;;;;;;5032373;28;20873;-64
2023/07/01 10:13:39;;;;;;;24.73;23.93;;;25.20;92.30;;;;;;5034468;28;20624;-70
2023/07/01 10:16:08;;;;;;;25.90;25.00;;;25.20;92.00;;;;;;5034249;28;20880;-65
2023/07/01 10:18:37;;;;;;;27.83;26.60;;;25.30;91.90;;;;;;5034206;28;20441;-64
2023/07/01 10:21:27;;;;;;;26.07;25.07;;;25.30;91.80;;;;;;5016160;28;20925;-64
2023/07/01 10:23:55;;;;;;;25.20;24.40;;;25.30;91.80;;;;;;5014416;28;20454;-67
2023/07/01 10:26:36;;;;;;;24.87;23.87;;;25.30;91.60;;;;;;5014086;28;20911;-65
2023/07/01 10:29:42;;;;;;;25.87;24.87;;;25.40;91.60;;;;;;5015069;28;20558;-67
2023/07/01 10:32:32;;;;;;;24.20;23.30;;;25.40;91.60;;;;;;4984486;28;20941;-65
2023/07/01 10:35:11;;;;;;;25.60;24.70;;;25.30;91.80;;;;;;4994654;28;20454;-65
2023/07/01 10:37:38;;;;;;;25.37;24.47;;;25.30;91.70;;;;;;4994650;28;20438;-61
2023/07/01 10:40:49;;;;;;;24.70;23.80;;;25.30;92.30;;;;;;5008733;28;20565;-65
2023/07/01 10:43:27;;;;;;;25.47;24.57;;;25.30;92.00;;;;;;5018887;28;20488;-66
2023/07/01 10:46:11;;;;;;;25.07;24.17;;;25.30;92.30;;;;;;5033676;28;20469;-66
2023/07/01 10:48:39;;;;;;;24.77;23.87;;;25.20;93.10;;;;;;5033755;28;20793;-66
2023/07/01 10:51:08;;;;;;;25.07;24.10;;;25.20;94.00;;;;;;5021314;28;20553;-67
2023/07/01 10:53:56;;;;;;;23.50;22.50;;;25.20;93.50;;;;;;5014976;28;20537;-67
2023/07/01 10:56:23;;;;;;;24.17;23.33;;;25.20;93.30;;;;;;5013622;28;20457;-67
2023/07/01 10:59:25;;;;;;;22.33;21.63;;;25.20;93.40;;;;;;5013715;28;20481;-69
2023/07/01 11:01:56;;;;;;;25.23;24.33;;;25.20;93.80;;;;;;5003034;28;20927;-67
2023/07/01 11:04:23;;;;;;;23.77;22.97;;;25.20;93.10;;;;;;5033330;28;20445;-66
2023/07/01 11:06:53;;;;;;;22.60;21.80;;;25.30;92.60;;;;;;5033398;28;20951;-65
2023/07/01 11:09:32;;;;;;;24.40;23.60;;;25.30;92.60;;;;;;5032997;28;20488;-67
2023/07/01 11:12:00;;;;;;;24.30;23.50;;;25.30;92.50;;;;;;5014564;28;20453;-66
2023/07/01 11:14:31;;;;;;;21.53;20.83;;;25.30;92.40;;;;;;5013339;28;20524;-62
2023/07/01 11:17:10;;;;;;;21.63;20.93;;;25.40;92.50;;;;;;5012869;28;20470;-67
2023/07/01 11:19:38;;;;;;;30.67;28.20;;;25.30;92.50;;;;;;5014338;28;20568;-65
2023/07/01 11:22:06;;;;;;;23.50;22.40;;;25.30;92.70;;;;;;5013347;28;20504;-67
2023/07/01 11:24:34;;;;;;;25.00;23.90;;;25.30;92.60;;;;;;5013294;28;20528;-66
2023/07/01 11:27:03;;;;;;;25.77;24.43;;;25.30;92.80;;;;;;5013254;28;20449;-65
2023/07/01 11:29:31;;;;;;;25.30;24.00;;;25.20;93.20;;;;;;5013165;28;20442;-67
2023/07/01 11:31:59;;;;;;;23.97;22.90;;;25.30;93.10;;;;;;5030638;28;20445;-65
2023/07/01 11:34:26;;;;;;;23.90;22.90;;;25.30;93.90;;;;;;5032752;28;20452;-66
2023/07/01 11:36:53;;;;;;;23.60;22.60;;;25.30;94.20;;;;;;5032639;28;20445;-65
2023/07/01 11:39:22;;;;;;;22.87;21.97;;;25.30;93.50;;;;;;5032641;28;20544;-66
2023/07/01 11:41:51;;;;;;;24.77;23.67;;;25.30;93.80;;;;;;5014701;28;20457;-67
2023/07/01 11:44:22;;;;;;;23.60;22.70;;;25.40;93.90;;;;;;5012812;28;20442;-59
2023/07/01 11:46:49;;;;;;;22.30;21.30;;;25.40;94.00;;;;;;5012717;28;20437;-66
2023/07/01 11:49:18;;;;;;;24.03;22.87;;;25.40;93.90;;;;;;5012759;28;20474;-65
2023/07/01 11:51:47;;;;;;;25.87;24.40;;;25.40;93.70;;;;;;5012872;28;20482;-66
2023/07/01 11:54:15;;;;;;;56.17;51.00;;;25.40;93.60;;;;;;5031128;28;20491;-66
2023/07/01 11:56:44;;;;;;;23.83;22.63;;;25.40;94.30;;;;;;5032239;28;20851;-64
2023/07/01 11:59:11;;;;;;;23.53;22.33;;;25.40;93.70;;;;;;5032454;28;20537;-59
2023/07/01 12:01:39;;;;;;;27.97;26.07;;;25.50;93.20;;;;;;5032261;28;20573;-57
2023/07/01 12:04:17;;;;;;;25.70;24.13;;;25.50;93.10;;;;;;5029575;28;20456;-57
2023/07/01 12:06:45;;;;;;;24.80;23.60;;;25.50;93.10;;;;;;5012470;28;20457;-60
2023/07/01 12:09:27;;;;;;;23.30;22.20;;;25.30;93.90;;;;;;5012443;28;21147;-57
2023/07/01 12:11:56;;;;;;;23.23;22.07;;;25.10;95.90;;;;;;5012362;28;20450;-58
2023/07/01 12:14:24;;;;;;;22.17;21.27;;;25.10;96.90;;;;;;5030267;28;20552;-60
2023/07/01 12:16:52;;;;;;;22.30;21.40;;;25.10;97.10;;;;;;5032207;28;20528;-59
2023/07/01 12:19:20;;;;;;;21.60;20.73;;;25.20;97.00;;;;;;5031648;28;20561;-61
2023/07/01 12:21:47;;;;;;;20.50;19.80;;;25.20;97.70;;;;;;5030250;28;20559;-61
2023/07/01 12:24:19;;;;;;;22.43;21.43;;;25.30;97.70;;;;;;5032079;28;20536;-66
2023/07/01 12:26:46;;;;;;;22.43;21.53;;;25.30;97.60;;;;;;5031646;28;20461;-62
2023/07/01 12:29:15;;;;;;;22.07;21.27;;;25.30;97.70;;;;;;5031198;28;20548;-58
2023/07/01 12:31:42;;;;;;;22.70;21.80;;;25.20;98.00;;;;;;5022921;28;20438;-63
2023/07/01 12:34:09;;;;;;;22.93;22.13;;;25.20;97.50;;;;;;5012103;28;20533;-64
2023/07/01 12:36:37;;;;;;;23.10;22.20;;;25.20;97.30;;;;;;5011843;28;20890;-62